KONT/ONT METAR and TAF weather

Enter ICAO airport designator
Station Type Date Time Source
KONT METAR 2020/09/22 20:53 UTC NOAA

KONT 222053Z 26007KT 10SM CLR 33/11 A2998 RMK AO2 SLP134 FU DSNT NW T03330106 58018


Station Type Date Time Source
KONT Decoded METAR 2020/09/22 20:53 UTC NOAA

ONTARIO INTERNATIONAL AIRPORT, CA, United States (KONT) 34-03N 117-35W 275M
Sep 22, 2020 - 04:53 PM EDT / 2020.09.22 2053 UTC
Wind: from the W (260 degrees) at 8 MPH (7 KT):0
Visibility: 10 mile(s):0
Sky conditions: clear
Temperature: 91.9 F (33.3 C)
Dew Point: 51.1 F (10.6 C)
Relative Humidity: 24%
Pressure (altimeter): 29.98 in. Hg (1015 hPa)
Pressure tendency: 0.05 inches (1.8 hPa) lower than three hours ago
ob: KONT 222053Z 26007KT 10SM CLR 33/11 A2998 RMK AO2 SLP134 FU DSNT NW T03330106 58018
cycle: 21

Station Type Date Time Source
KONT TAF 2020/09/22 18:33 UTC NOAA

TAF KONT 221730Z 2218/2324 VRB04KT 6SM HZ SKC
FM222000 26012G17KT P6SM SKC
FM230400 VRB05KT P6SM SKC
FM232000 26011KT P6SM SKC

Example: see airport list